MRT weather

Union County Airport
Marysville, Ohio, United States

Public forecast

Using degrees Fahrenheit for public forecast. Weather courtesy of forecast.io.

Current aviation weather report (METAR) for Union County Airport

Retrieved 2019/10/24 03:35 UTC (0 seconds ago):

KMRT 240335Z AUTO 21010KT 10SM CLR 10/01 A3014 RMK AO2 T01020009

Closest aviation forecast (TAF) to Union County Airport

Closest forecast is John Glenn Columbus International Airport, 25.1 nm (46.5 km) ESE. Retrieved 2019-10-24 00:30 UTC (3 hours ago):

TAF KCMH 232326Z 2400/2424 19007KT P6SM SCT120 BKN150 FM241600 23007KT P6SM BKN120 FM242200 31005KT P6SM OVC120